createdAt,value
2019-03-25T00:01:46.158Z,58.65
2019-03-25T00:04:19.658Z,59.95
2019-03-25T00:06:52.719Z,58.00
2019-03-25T00:09:26.319Z,53.85
2019-03-25T00:11:59.818Z,59.45
2019-03-25T00:14:33.519Z,59.53
2019-03-25T00:17:06.522Z,58.45
2019-03-25T00:19:40.122Z,54.48
2019-03-25T00:22:14.001Z,57.43
2019-03-25T00:24:47.918Z,61.75
2019-03-25T00:27:21.518Z,55.95
2019-03-25T00:29:55.238Z,57.93
2019-03-25T00:32:28.396Z,62.60
2019-03-25T00:35:01.596Z,59.08
2019-03-25T00:37:34.875Z,61.68
2019-03-25T00:40:08.315Z,58.48
2019-03-25T00:42:41.737Z,55.65
2019-03-25T00:45:15.256Z,53.13
2019-03-25T00:47:49.016Z,65.72
2019-03-25T00:50:22.076Z,60.95
2019-03-25T00:52:55.795Z,59.05
2019-03-25T00:55:29.416Z,47.13
2019-03-25T00:58:02.638Z,54.90
2019-03-25T01:00:36.575Z,56.28
2019-03-25T01:03:10.178Z,49.15
2019-03-25T01:05:43.815Z,52.25
2019-03-25T01:08:17.555Z,54.70
2019-03-25T01:10:50.835Z,52.43
2019-03-25T01:13:24.015Z,56.55
2019-03-25T01:15:57.560Z,50.67
2019-03-25T01:18:31.955Z,53.55
2019-03-25T01:21:05.215Z,51.45
2019-03-25T01:23:38.656Z,59.48
2019-03-25T01:26:12.178Z,52.13
2019-03-25T01:28:45.896Z,54.55
2019-03-25T01:31:18.937Z,51.28
2019-03-25T01:33:52.615Z,53.08
2019-03-25T01:36:26.815Z,63.00
2019-03-25T01:39:16.657Z,60.98
2019-03-25T01:41:49.695Z,63.80
2019-03-25T01:44:22.936Z,65.50
2019-03-25T01:46:56.177Z,65.90
2019-03-25T01:49:29.475Z,69.58
2019-03-25T01:52:03.295Z,70.35
2019-03-25T01:54:36.235Z,69.72
2019-03-25T01:57:09.735Z,68.90
2019-03-25T01:59:44.175Z,67.58
2019-03-25T02:02:17.736Z,68.65
2019-03-25T02:04:51.756Z,64.05
2019-03-25T02:07:24.575Z,67.82
2019-03-25T02:09:57.816Z,72.72
2019-03-25T02:12:31.296Z,62.15
2019-03-25T02:15:05.215Z,59.18
2019-03-25T02:17:39.095Z,56.23
2019-03-25T02:20:12.678Z,62.25
2019-03-25T02:22:46.155Z,57.95
2019-03-25T02:25:25.476Z,64.42
2019-03-25T02:27:55.175Z,60.45
2019-03-25T02:30:28.518Z,54.30
2019-03-25T02:33:01.716Z,56.13
2019-03-25T02:35:35.380Z,55.20
2019-03-25T02:38:08.635Z,61.53
2019-03-25T02:40:43.097Z,65.10
2019-03-25T02:43:17.015Z,66.20
2019-03-25T02:45:50.860Z,65.52
2019-03-25T02:48:23.796Z,58.65
2019-03-25T02:50:57.498Z,60.35
2019-03-25T02:53:31.356Z,60.20
2019-03-25T02:56:05.355Z,64.03
2019-03-25T02:58:39.056Z,61.95
2019-03-25T03:01:12.576Z,59.90
2019-03-25T03:03:46.297Z,61.18
2019-03-25T03:06:19.341Z,68.60
2019-03-25T03:08:52.644Z,56.25
2019-03-25T03:11:25.978Z,60.60
2019-03-25T03:13:59.857Z,62.48
2019-03-25T03:16:33.500Z,60.90
2019-03-25T03:19:06.804Z,62.98
2019-03-25T03:21:40.857Z,65.92
2019-03-25T03:24:14.557Z,56.60
2019-03-25T03:26:48.621Z,61.88
2019-03-25T03:29:20.556Z,55.20
2019-03-25T03:31:53.735Z,55.43
2019-03-25T03:34:26.474Z,57.13
2019-03-25T03:36:59.956Z,65.32
2019-03-25T03:39:33.337Z,64.55
2019-03-25T03:42:07.036Z,63.00
2019-03-25T03:44:40.988Z,60.85
2019-03-25T03:47:14.332Z,66.20
2019-03-25T03:49:47.416Z,68.37
2019-03-25T03:52:21.121Z,63.50
2019-03-25T03:54:54.256Z,56.68
2019-03-25T03:57:28.536Z,58.92
2019-03-25T04:00:03.196Z,60.50
2019-03-25T04:02:36.475Z,59.50
2019-03-25T04:05:09.778Z,61.37
2019-03-25T04:07:43.667Z,64.00
2019-03-25T04:10:17.017Z,61.18
2019-03-25T04:12:50.878Z,64.90
2019-03-25T04:15:29.134Z,37.85
2019-03-25T04:18:03.027Z,56.45
2019-03-25T04:20:36.357Z,60.70
2019-03-25T04:23:10.004Z,66.97
2019-03-25T04:25:43.625Z,66.62
2019-03-25T04:28:16.636Z,67.72
2019-03-25T04:30:50.215Z,123.25
2019-03-25T04:33:24.101Z,61.05
2019-03-25T04:35:57.656Z,69.92
2019-03-25T04:38:31.276Z,66.55
2019-03-25T04:41:04.656Z,67.80
2019-03-25T04:43:38.777Z,54.18
2019-03-25T04:46:12.815Z,42.27
2019-03-25T04:48:45.655Z,65.52
2019-03-25T04:51:18.796Z,59.93
2019-03-25T04:53:52.716Z,68.37
2019-03-25T04:56:25.876Z,59.00
2019-03-25T04:58:59.176Z,58.63
2019-03-25T05:01:31.456Z,65.12
2019-03-25T05:04:05.336Z,63.33
2019-03-25T05:06:37.976Z,60.58
2019-03-25T05:09:11.538Z,72.05
2019-03-25T05:11:45.640Z,66.22
2019-03-25T05:14:17.815Z,68.70
2019-03-25T05:16:50.396Z,68.57
2019-03-25T05:19:22.336Z,68.02
2019-03-25T05:21:54.876Z,63.38
2019-03-25T05:24:28.375Z,72.60
2019-03-25T05:27:01.959Z,72.37
2019-03-25T05:29:35.756Z,68.40
2019-03-25T05:32:09.135Z,72.55
2019-03-25T05:34:42.619Z,146.25
2019-03-25T05:37:16.375Z,69.45
2019-03-25T05:39:49.658Z,66.22
2019-03-25T05:42:23.535Z,62.43
2019-03-25T05:45:23.961Z,60.33
2019-03-25T05:47:58.297Z,66.25
2019-03-25T05:50:31.895Z,68.30
2019-03-25T05:53:05.755Z,63.17
2019-03-25T05:55:40.864Z,71.02
2019-03-25T05:58:13.475Z,66.65
2019-03-25T06:00:46.675Z,63.35
2019-03-25T06:03:19.796Z,60.10
2019-03-25T06:05:53.676Z,62.58
2019-03-25T06:08:26.937Z,70.50
2019-03-25T06:11:00.936Z,72.62
2019-03-25T06:13:34.456Z,70.80
2019-03-25T06:16:08.955Z,62.38
2019-03-25T06:18:42.503Z,73.90
2019-03-25T06:21:16.456Z,64.58
2019-03-25T06:23:49.675Z,68.70
2019-03-25T06:26:22.775Z,72.27
2019-03-25T06:28:56.256Z,68.57
2019-03-25T06:31:29.857Z,58.75
2019-03-25T06:34:04.375Z,73.57
2019-03-25T06:36:38.395Z,114.15
2019-03-25T06:39:11.981Z,67.90
2019-03-25T06:41:46.004Z,56.28
2019-03-25T06:44:19.417Z,49.98
2019-03-25T06:46:53.138Z,67.90
2019-03-25T06:49:26.955Z,64.50
2019-03-25T06:52:00.777Z,73.35
2019-03-25T06:54:33.956Z,80.60
2019-03-25T06:57:07.364Z,64.67
2019-03-25T06:59:41.555Z,66.10
2019-03-25T07:02:15.535Z,65.95
2019-03-25T07:04:49.335Z,63.45
2019-03-25T07:07:22.575Z,74.60
2019-03-25T07:09:56.455Z,63.87
2019-03-25T07:12:30.416Z,71.53
2019-03-25T07:15:04.016Z,71.70
2019-03-25T07:17:37.656Z,61.73
2019-03-25T07:20:11.379Z,61.23
2019-03-25T07:22:45.116Z,65.55
2019-03-25T07:25:17.495Z,64.53
2019-03-25T07:27:51.079Z,65.15
2019-03-25T07:30:23.956Z,60.45
2019-03-25T07:32:57.815Z,67.70
2019-03-25T07:35:31.575Z,68.20
2019-03-25T07:38:04.457Z,48.28
2019-03-25T07:40:38.935Z,57.67
2019-03-25T07:43:12.455Z,67.95
2019-03-25T07:45:45.537Z,63.42
2019-03-25T07:48:18.163Z,63.15
2019-03-25T07:50:51.983Z,58.68
2019-03-25T07:53:25.346Z,56.20
2019-03-25T07:55:59.198Z,67.40
2019-03-25T07:58:32.800Z,67.40
2019-03-25T08:01:06.351Z,63.25
2019-03-25T08:03:39.993Z,53.17
2019-03-25T08:06:13.047Z,60.43
2019-03-25T08:08:45.978Z,60.33
2019-03-25T08:11:19.683Z,52.33
2019-03-25T08:13:52.544Z,53.10
2019-03-25T08:16:25.544Z,77.80
2019-03-25T08:18:58.544Z,60.80
2019-03-25T08:21:31.592Z,56.05
2019-03-25T08:24:04.388Z,58.33
2019-03-25T08:26:37.405Z,46.80
2019-03-25T08:29:11.065Z,58.42
2019-03-25T08:31:44.103Z,53.20
2019-03-25T08:34:17.761Z,53.00
2019-03-25T08:36:51.790Z,46.37
2019-03-25T08:39:24.760Z,54.93
2019-03-25T08:41:57.850Z,47.95
2019-03-25T08:44:30.929Z,60.03
2019-03-25T08:47:04.791Z,53.15
2019-03-25T08:49:38.071Z,55.52
2019-03-25T08:52:11.291Z,40.38
2019-03-25T08:54:44.805Z,39.95
2019-03-25T08:57:18.683Z,48.98
2019-03-25T08:59:51.810Z,46.70
2019-03-25T09:02:25.134Z,44.38
2019-03-25T09:04:57.829Z,40.70
2019-03-25T09:07:30.873Z,47.98
2019-03-25T09:10:04.255Z,40.70
2019-03-25T09:12:37.350Z,44.53
2019-03-25T09:15:10.849Z,42.25
2019-03-25T09:17:43.479Z,41.60
2019-03-25T09:20:16.612Z,40.73
2019-03-25T09:22:50.439Z,43.02
2019-03-25T09:25:23.939Z,39.27
2019-03-25T09:27:57.599Z,38.28
2019-03-25T09:31:18.497Z,39.85
2019-03-25T09:33:51.919Z,38.33
2019-03-25T09:36:25.077Z,40.00
2019-03-25T09:38:58.318Z,34.80
2019-03-25T09:41:32.399Z,53.92
2019-03-25T09:44:05.579Z,42.48
2019-03-25T09:46:38.968Z,36.55
2019-03-25T09:49:12.920Z,42.50
2019-03-25T09:51:46.797Z,39.88
2019-03-25T09:54:20.717Z,37.30
2019-03-25T09:56:54.017Z,33.95
2019-03-25T09:59:28.097Z,40.48
2019-03-25T10:02:01.477Z,40.08
2019-03-25T10:04:33.477Z,37.40
2019-03-25T10:07:07.297Z,41.10
2019-03-25T10:09:39.677Z,40.43
2019-03-25T10:12:12.814Z,35.92
2019-03-25T10:14:45.118Z,41.70
2019-03-25T10:17:18.337Z,31.60
2019-03-25T10:19:50.901Z,43.83
2019-03-25T10:22:23.938Z,37.35
2019-03-25T10:24:57.658Z,31.77
2019-03-25T10:27:30.839Z,29.90
2019-03-25T10:30:05.036Z,28.00
2019-03-25T10:32:38.319Z,27.05
2019-03-25T10:35:11.945Z,20.50
2019-03-25T10:37:44.579Z,19.07
2019-03-25T10:40:17.504Z,15.90
2019-03-25T10:42:51.108Z,14.50
2019-03-25T10:45:24.084Z,20.55
2019-03-25T10:47:59.864Z,10.45
2019-03-25T10:50:32.905Z,15.15
2019-03-25T10:53:06.478Z,16.75
2019-03-25T10:55:39.120Z,13.15
2019-03-25T10:58:12.200Z,14.53
2019-03-25T11:00:45.998Z,12.35
2019-03-25T11:03:18.200Z,13.22
2019-03-25T11:05:50.658Z,15.03
2019-03-25T11:08:24.245Z,9.70
2019-03-25T11:10:57.560Z,10.93
2019-03-25T11:13:31.637Z,10.68
2019-03-25T11:16:05.557Z,11.55
2019-03-25T11:18:38.957Z,13.95
2019-03-25T11:21:13.117Z,11.20
2019-03-25T11:23:47.197Z,11.12
2019-03-25T11:26:20.097Z,12.00
2019-03-25T11:28:53.863Z,13.62
2019-03-25T11:31:27.282Z,9.05
2019-03-25T11:34:01.083Z,7.78
2019-03-25T11:36:34.854Z,10.63
2019-03-25T11:39:09.244Z,11.33
2019-03-25T11:41:42.802Z,9.83
2019-03-25T11:44:16.003Z,11.80
2019-03-25T11:46:49.995Z,8.95
2019-03-25T11:49:23.858Z,13.85
2019-03-25T11:51:57.158Z,13.40
2019-03-25T11:54:30.456Z,20.30
2019-03-25T11:57:04.753Z,10.20
2019-03-25T11:59:39.247Z,10.77
2019-03-25T12:02:17.557Z,9.78
2019-03-25T12:04:46.843Z,11.35
2019-03-25T12:07:20.084Z,10.43
2019-03-25T12:09:53.695Z,7.65
2019-03-25T12:12:27.208Z,8.78
2019-03-25T12:15:01.732Z,5.97
2019-03-25T12:17:35.491Z,11.38
2019-03-25T12:20:08.818Z,12.40
2019-03-25T12:22:42.360Z,6.92
2019-03-25T12:25:15.192Z,6.50
2019-03-25T12:27:48.718Z,6.53
2019-03-25T12:30:22.418Z,6.40
2019-03-25T12:33:03.614Z,7.12
2019-03-25T12:35:30.758Z,7.62
2019-03-25T12:38:04.115Z,7.08
2019-03-25T12:40:37.197Z,6.10
2019-03-25T12:43:10.877Z,7.28
2019-03-25T12:45:44.458Z,7.85
2019-03-25T12:48:18.158Z,6.72
2019-03-25T12:50:51.757Z,5.67
2019-03-25T12:53:24.617Z,5.42
2019-03-25T12:55:57.897Z,6.90
2019-03-25T12:58:30.697Z,5.50
2019-03-25T13:01:03.598Z,3.65
2019-03-25T13:03:37.116Z,8.00
2019-03-25T13:06:11.141Z,2.40
2019-03-25T13:08:44.437Z,7.12
2019-03-25T13:11:18.500Z,3.95
2019-03-25T13:13:52.378Z,4.28
2019-03-25T13:16:25.997Z,3.60
2019-03-25T13:18:58.477Z,4.70
2019-03-25T13:21:31.359Z,5.42
2019-03-25T13:24:04.278Z,3.30
2019-03-25T13:26:37.857Z,3.90
2019-03-25T13:29:11.918Z,2.50
2019-03-25T13:31:46.117Z,8.08
2019-03-25T13:34:19.163Z,2.95
2019-03-25T13:36:53.157Z,3.70
2019-03-25T13:39:26.557Z,2.52
2019-03-25T13:41:59.838Z,2.80
2019-03-25T13:44:32.877Z,1.37
2019-03-25T13:47:05.977Z,3.00
2019-03-25T13:49:38.980Z,3.52
2019-03-25T13:52:12.617Z,6.40
2019-03-25T13:54:44.977Z,7.35
2019-03-25T13:57:18.618Z,2.65
2019-03-25T14:00:02.740Z,3.30
2019-03-25T14:02:26.838Z,4.55
2019-03-25T14:05:00.296Z,2.72
2019-03-25T14:07:33.757Z,4.00
2019-03-25T14:10:07.641Z,2.55
2019-03-25T14:12:40.498Z,2.33
2019-03-25T14:15:13.680Z,28.32
2019-03-25T14:17:47.869Z,4.85
2019-03-25T14:20:21.424Z,2.60
2019-03-25T14:22:55.377Z,3.37
2019-03-25T14:25:29.123Z,6.65
2019-03-25T14:28:02.969Z,3.00
2019-03-25T14:30:36.042Z,3.42
2019-03-25T14:33:09.081Z,2.50
2019-03-25T14:35:45.301Z,1.20
2019-03-25T14:38:18.442Z,5.35
2019-03-25T14:40:51.741Z,2.58
2019-03-25T14:43:26.059Z,6.33
2019-03-25T14:46:00.027Z,7.33
2019-03-25T14:48:33.834Z,7.75
2019-03-25T14:51:06.917Z,5.70
2019-03-25T14:53:45.189Z,3.25
2019-03-25T14:56:16.361Z,2.70
2019-03-25T14:58:50.242Z,3.80
2019-03-25T15:01:23.445Z,1.85
2019-03-25T15:03:56.604Z,2.58
2019-03-25T15:06:30.079Z,3.92
2019-03-25T15:09:03.597Z,4.22
2019-03-25T15:11:36.966Z,3.17
2019-03-25T15:14:10.011Z,2.22
2019-03-25T15:16:42.706Z,1.40
2019-03-25T15:19:15.621Z,4.80
2019-03-25T15:21:48.820Z,6.00
2019-03-25T15:24:22.222Z,4.75
2019-03-25T15:26:56.268Z,3.10
2019-03-25T15:29:31.146Z,3.65
2019-03-25T15:32:05.192Z,2.52
2019-03-25T15:34:37.491Z,3.12
2019-03-25T15:37:10.466Z,2.30
2019-03-25T15:39:46.973Z,3.67
2019-03-25T15:42:18.863Z,1.82
2019-03-25T15:44:52.096Z,2.33
2019-03-25T15:47:24.679Z,4.40
2019-03-25T15:49:57.476Z,3.50
2019-03-25T15:52:30.839Z,6.35
2019-03-25T15:55:04.205Z,3.70
2019-03-25T15:57:39.546Z,2.20
2019-03-25T16:00:15.561Z,2.15
2019-03-25T16:02:48.997Z,3.10
2019-03-25T16:05:21.798Z,4.95
2019-03-25T16:07:55.437Z,5.05
2019-03-25T16:10:28.037Z,2.90
2019-03-25T16:13:01.611Z,2.95
2019-03-25T16:15:45.177Z,4.42
2019-03-25T16:18:39.938Z,10.55
2019-03-25T16:21:12.757Z,5.58
2019-03-25T16:23:45.280Z,2.90
2019-03-25T16:26:17.985Z,4.53
2019-03-25T16:28:50.597Z,3.80
2019-03-25T16:31:23.917Z,6.17
2019-03-25T16:33:56.577Z,3.60
2019-03-25T16:36:29.637Z,3.35
2019-03-25T16:39:01.977Z,10.40
2019-03-25T16:41:35.278Z,3.60
2019-03-25T16:44:07.680Z,3.15
2019-03-25T16:46:41.239Z,3.12
2019-03-25T16:49:14.558Z,5.08
2019-03-25T16:51:47.960Z,4.90
2019-03-25T16:54:20.035Z,5.92
2019-03-25T16:56:53.276Z,3.40
2019-03-25T16:59:26.596Z,4.70
2019-03-25T17:01:59.994Z,3.15
2019-03-25T17:04:32.438Z,6.33
2019-03-25T17:07:05.389Z,6.87
2019-03-25T17:09:38.889Z,6.03
2019-03-25T17:12:12.210Z,4.05
2019-03-25T17:14:45.295Z,4.20
2019-03-25T17:17:19.609Z,5.08
2019-03-25T17:19:53.531Z,4.47
2019-03-25T17:22:26.809Z,8.45
2019-03-25T17:25:00.529Z,5.25
2019-03-25T17:27:34.011Z,6.50
2019-03-25T17:30:07.828Z,5.53
2019-03-25T17:32:40.750Z,4.37
2019-03-25T17:35:13.949Z,4.45
2019-03-25T17:37:47.989Z,4.85
2019-03-25T17:40:21.349Z,5.62
2019-03-25T17:42:55.010Z,5.12
2019-03-25T17:45:28.571Z,6.20
2019-03-25T17:48:01.929Z,4.03
2019-03-25T17:50:35.656Z,5.55
2019-03-25T17:53:09.050Z,5.75
2019-03-25T17:55:42.510Z,9.23
2019-03-25T17:58:16.609Z,5.60
2019-03-25T18:01:17.730Z,9.75
2019-03-25T18:03:51.292Z,5.58
2019-03-25T18:06:23.671Z,5.97
2019-03-25T18:08:56.892Z,5.40
2019-03-25T18:11:29.970Z,5.37
2019-03-25T18:14:03.172Z,7.25
2019-03-25T18:16:37.229Z,4.95
2019-03-25T18:19:11.170Z,8.08
2019-03-25T18:21:45.010Z,5.90
2019-03-25T18:24:18.829Z,5.08
2019-03-25T18:26:59.370Z,5.15
2019-03-25T18:29:31.929Z,5.20
2019-03-25T18:32:04.789Z,5.67
2019-03-25T18:34:40.096Z,4.90
2019-03-25T18:37:14.429Z,3.95
2019-03-25T18:39:46.508Z,3.60
2019-03-25T18:42:20.409Z,3.80
2019-03-25T18:44:53.410Z,3.05
2019-03-25T18:47:27.059Z,3.08
2019-03-25T18:50:00.469Z,3.10
2019-03-25T18:52:34.370Z,2.27
2019-03-25T18:55:07.978Z,3.08
2019-03-25T18:57:41.510Z,2.35
2019-03-25T19:00:18.250Z,1.25
2019-03-25T19:02:51.317Z,1.40
2019-03-25T19:05:24.429Z,2.20
2019-03-25T19:07:57.529Z,1.50
2019-03-25T19:10:33.889Z,2.62
2019-03-25T19:13:07.469Z,1.77
2019-03-25T19:15:40.574Z,1.65
2019-03-25T19:18:13.691Z,1.98
2019-03-25T19:20:46.570Z,2.05
2019-03-25T19:23:20.510Z,3.52
2019-03-25T19:25:53.829Z,1.57
2019-03-25T19:28:27.349Z,1.30
2019-03-25T19:31:00.893Z,2.50
2019-03-25T19:33:34.183Z,2.40
2019-03-25T19:36:06.971Z,2.10
2019-03-25T19:38:40.101Z,2.83
2019-03-25T19:41:13.329Z,2.37
2019-03-25T19:43:46.691Z,2.30
2019-03-25T19:46:20.111Z,4.47
2019-03-25T19:48:54.174Z,3.30
2019-03-25T19:51:27.728Z,3.42
2019-03-25T19:54:01.218Z,3.58
2019-03-25T19:56:34.651Z,3.67
2019-03-25T19:59:08.519Z,3.02
2019-03-25T20:01:42.009Z,1.70
2019-03-25T20:04:14.962Z,2.40
2019-03-25T20:06:47.811Z,1.80
2019-03-25T20:09:20.205Z,3.02
2019-03-25T20:11:53.667Z,2.20
2019-03-25T20:14:27.595Z,3.33
2019-03-25T20:17:01.082Z,2.08
2019-03-25T20:19:34.423Z,2.47
2019-03-25T20:22:07.586Z,2.10
2019-03-25T20:24:41.087Z,4.95
2019-03-25T20:27:14.798Z,2.87
2019-03-25T20:29:48.339Z,2.50
2019-03-25T20:32:31.256Z,2.95
2019-03-25T20:34:56.572Z,2.17
2019-03-25T20:37:31.286Z,3.15
2019-03-25T20:40:04.384Z,2.70
2019-03-25T20:42:38.194Z,2.25
2019-03-25T20:45:11.266Z,3.10
2019-03-25T20:47:43.926Z,4.87
2019-03-25T20:50:16.964Z,4.00
2019-03-25T20:52:50.185Z,2.58
2019-03-25T20:55:23.203Z,2.60
2019-03-25T20:57:56.543Z,2.83
2019-03-25T21:00:50.802Z,3.95
2019-03-25T21:03:23.606Z,3.45
2019-03-25T21:05:56.729Z,3.17
2019-03-25T21:08:30.019Z,3.80
2019-03-25T21:11:02.724Z,2.10
2019-03-25T21:13:36.203Z,2.22
2019-03-25T21:16:10.100Z,2.30
2019-03-25T21:18:42.766Z,2.40
2019-03-25T21:21:15.812Z,1.80
2019-03-25T21:23:50.226Z,4.97
2019-03-25T21:26:23.843Z,1.82
2019-03-25T21:28:57.410Z,2.37
2019-03-25T21:31:30.885Z,2.80
2019-03-25T21:34:04.823Z,2.52
2019-03-25T21:36:37.968Z,2.83
2019-03-25T21:39:12.029Z,2.70
2019-03-25T21:41:46.474Z,3.42
2019-03-25T21:44:20.083Z,2.12
2019-03-25T21:46:53.772Z,3.45
2019-03-25T21:49:27.956Z,3.15
2019-03-25T21:52:01.675Z,1.60
2019-03-25T21:54:35.515Z,1.80
2019-03-25T21:57:08.604Z,1.60
2019-03-25T21:59:42.373Z,2.55
2019-03-25T22:02:16.463Z,2.83
2019-03-25T22:04:48.863Z,1.75
2019-03-25T22:07:21.967Z,3.20
2019-03-25T22:09:55.103Z,3.10
2019-03-25T22:12:27.845Z,1.98
2019-03-25T22:15:00.903Z,4.97
2019-03-25T22:17:34.243Z,3.95
2019-03-25T22:20:08.384Z,2.42
2019-03-25T22:22:42.203Z,2.50
2019-03-25T22:25:16.323Z,4.80
2019-03-25T22:27:49.443Z,9.28
2019-03-25T22:30:25.785Z,4.58
2019-03-25T22:32:57.782Z,4.92
2019-03-25T22:35:30.683Z,4.15
2019-03-25T22:38:04.384Z,6.15
2019-03-25T22:40:37.945Z,2.20
2019-03-25T22:43:11.245Z,2.08
2019-03-25T22:45:44.165Z,3.20
2019-03-25T22:48:17.764Z,2.62
2019-03-25T22:51:07.654Z,1.87
2019-03-25T22:53:40.790Z,2.20
2019-03-25T22:56:14.504Z,2.08
2019-03-25T22:58:48.223Z,3.70
2019-03-25T23:01:21.824Z,2.00
2019-03-25T23:03:55.704Z,2.60
2019-03-25T23:06:29.907Z,2.00
2019-03-25T23:09:04.924Z,1.60
2019-03-25T23:11:38.125Z,2.33
2019-03-25T23:14:10.784Z,2.42
2019-03-25T23:16:44.064Z,2.22
2019-03-25T23:19:17.223Z,5.83
2019-03-25T23:21:51.143Z,3.95
2019-03-25T23:24:24.784Z,2.83
2019-03-25T23:26:58.743Z,7.62
2019-03-25T23:29:32.063Z,3.12
2019-03-25T23:32:05.823Z,3.12
2019-03-25T23:34:39.186Z,4.15
2019-03-25T23:37:12.464Z,2.90
2019-03-25T23:39:45.390Z,2.70
2019-03-25T23:42:18.184Z,2.77
2019-03-25T23:44:51.623Z,3.05
2019-03-25T23:47:25.144Z,3.10
2019-03-25T23:49:58.223Z,3.50
2019-03-25T23:52:32.303Z,3.60
2019-03-25T23:55:06.264Z,3.50
2019-03-25T23:57:40.067Z,3.40
